Time;durP1;ratioP1;P1;durP2;ratioP2;P2;SDS_P1;SDS_P2;PMS_P1;PMS_P2;Temp;Humidity;BMP_temperature;BMP_pressure;BME280_temperature;BME280_humidity;BME280_pressure;Samples;Min_cycle;Max_cycle;Signal;HPM_P1;HPM_P2
2023/09/18 00:01:23;;;;;;;;;;;;;;;20.10;66.31;100201.59;3140657;28;19924;-75
2023/09/18 00:02:55;;;;;;;;;;;;;;;20.08;66.25;100191.13;3145458;28;20332;-75
2023/09/18 00:04:25;;;;;;;;;;;;;;;20.07;66.56;100196.56;3134555;28;19925;-75
2023/09/18 00:05:57;;;;;;;;;;;;;;;20.05;66.20;100186.09;3138147;28;19925;-75
2023/09/18 00:07:28;;;;;;;;;;;;;;;20.03;66.21;100182.75;3144034;28;19999;-75
2023/09/18 00:08:59;;;;;;;;;;;;;;;20.01;66.15;100189.94;3134507;28;20386;-75
2023/09/18 00:10:30;;;;;;;;;;;;;;;20.00;66.43;100189.09;3134214;28;20004;-75
2023/09/18 00:12:03;;;;;;;;;;;;;;;20.02;66.21;100180.19;3134382;28;20006;-75
2023/09/18 00:13:34;;;;;;;;;;;;;;;20.03;66.28;100187.19;3134572;28;19935;-75
2023/09/18 00:15:06;;;;;;;;;;;;;;;20.03;66.07;100188.03;3134071;28;19929;-75
2023/09/18 00:16:37;;;;;;;;;;;;;;;20.07;65.83;100185.97;3134509;28;19924;-75
2023/09/18 00:18:08;;;;;;;;;;;;;;;20.07;66.02;100183.34;3134389;28;19932;-75
2023/09/18 00:19:39;;;;;;;;;;;;;;;20.06;65.95;100181.66;3143826;28;19925;-75
2023/09/18 00:21:11;;;;;;;;;;;;;;;20.05;66.09;100178.16;3137757;28;20326;-76
2023/09/18 00:22:41;;;;;;;;;;;;;;;20.05;66.17;100179.97;3134337;28;19925;-77
2023/09/18 00:24:13;;;;;;;;;;;;;;;20.02;66.30;100177.56;3134514;28;20023;-77
2023/09/18 00:25:44;;;;;;;;;;;;;;;20.00;66.38;100172.41;3134164;28;20396;-77
2023/09/18 00:27:17;;;;;;;;;;;;;;;19.98;66.39;100187.53;3140273;28;20015;-77
2023/09/18 00:28:48;;;;;;;;;;;;;;;19.97;66.34;100184.06;3138449;28;19929;-76
2023/09/18 00:30:19;;;;;;;;;;;;;;;19.95;66.63;100185.13;3133092;28;19979;-76
2023/09/18 00:31:50;;;;;;;;;;;;;;;19.94;66.61;100189.59;3133899;28;19983;-76
2023/09/18 00:33:21;;;;;;;;;;;;;;;19.95;66.58;100185.97;3137361;28;19925;-77
2023/09/18 00:34:52;;;;;;;;;;;;;;;19.97;66.55;100191.16;3137820;28;20415;-77
2023/09/18 00:36:23;;;;;;;;;;;;;;;19.96;66.42;100189.44;3134041;28;19929;-77
2023/09/18 00:37:56;;;;;;;;;;;;;;;19.97;66.39;100192.00;3134363;28;20369;-77
2023/09/18 00:39:26;;;;;;;;;;;;;;;19.95;66.48;100195.72;3134687;28;19931;-78
2023/09/18 00:40:58;;;;;;;;;;;;;;;19.94;66.61;100181.66;3134418;28;20310;-78
2023/09/18 00:42:30;;;;;;;;;;;;;;;19.95;66.50;100187.78;3134442;28;19981;-78
2023/09/18 00:44:01;;;;;;;;;;;;;;;19.92;66.86;100188.84;3144787;28;20548;-78
2023/09/18 00:45:32;;;;;;;;;;;;;;;19.91;66.61;100191.63;3140558;28;19925;-78
2023/09/18 00:47:04;;;;;;;;;;;;;;;19.91;66.59;100191.63;3133707;28;19929;-78
2023/09/18 00:48:34;;;;;;;;;;;;;;;19.91;66.48;100189.81;3136990;28;20389;-78
2023/09/18 00:50:08;;;;;;;;;;;;;;;19.91;66.66;100184.53;3134213;28;19925;-77
2023/09/18 00:51:38;;;;;;;;;;;;;;;19.91;66.84;100199.56;3133868;28;19925;-77
2023/09/18 00:53:11;;;;;;;;;;;;;;;19.89;66.63;100190.91;3133261;28;20401;-78
2023/09/18 00:54:42;;;;;;;;;;;;;;;19.87;66.74;100191.00;3139610;28;19925;-77
2023/09/18 00:56:14;;;;;;;;;;;;;;;19.87;66.57;100190.16;3141128;28;20294;-77
2023/09/18 00:57:46;;;;;;;;;;;;;;;19.88;66.33;100189.22;3132026;28;19935;-78
2023/09/18 00:59:17;;;;;;;;;;;;;;;19.89;66.39;100185.63;3143440;28;19986;-76
2023/09/18 01:00:51;;;;;;;;;;;;;;;19.88;66.67;100183.94;3126893;28;19926;-77
2023/09/18 01:02:22;;;;;;;;;;;;;;;19.89;66.29;100189.09;3134277;28;19925;-77
2023/09/18 01:03:53;;;;;;;;;;;;;;;19.88;66.57;100181.31;3146187;28;19929;-76
2023/09/18 01:05:25;;;;;;;;;;;;;;;19.87;66.40;100177.78;3146275;28;19947;-77
2023/09/18 01:06:56;;;;;;;;;;;;;;;19.87;66.28;100180.44;3134640;28;19925;-77
2023/09/18 01:08:28;;;;;;;;;;;;;;;19.87;66.44;100179.59;3133172;28;19931;-77
2023/09/18 01:09:58;;;;;;;;;;;;;;;19.87;66.42;100177.78;3133652;28;20409;-77
2023/09/18 01:11:33;;;;;;;;;;;;;;;19.88;66.31;100189.22;3141261;28;19939;-77
2023/09/18 01:13:13;;;;;;;;;;;;;;;19.88;66.44;100183.94;3133737;28;19936;-77
2023/09/18 01:14:49;;;;;;;;;;;;;;;19.87;66.38;100191.00;3134026;28;19925;-77
2023/09/18 01:16:24;;;;;;;;;;;;;;;19.90;66.42;100190.78;3131603;28;20005;-76
2023/09/18 01:17:56;;;;;;;;;;;;;;;19.92;66.23;100188.03;3138433;28;19928;-76
2023/09/18 01:19:36;;;;;;;;;;;;;;;19.93;66.00;100189.69;3141772;28;19947;-76
2023/09/18 01:21:08;;;;;;;;;;;;;;;19.92;66.06;100185.38;3137231;28;19978;-75
2023/09/18 01:22:41;;;;;;;;;;;;;;;19.91;66.01;100189.81;3132868;28;20386;-76
2023/09/18 01:24:11;;;;;;;;;;;;;;;19.92;66.02;100188.84;3140246;28;19928;-76
2023/09/18 01:25:43;;;;;;;;;;;;;;;19.93;65.96;100198.47;3139733;28;20390;-75
2023/09/18 01:27:14;;;;;;;;;;;;;;;19.95;65.86;100182.50;3133494;28;19925;-76
2023/09/18 01:28:45;;;;;;;;;;;;;;;19.95;65.80;100187.78;3133609;28;19929;-76
2023/09/18 01:30:17;;;;;;;;;;;;;;;19.97;65.57;100185.88;3136748;28;19924;-75
2023/09/18 01:31:49;;;;;;;;;;;;;;;19.98;65.66;100182.25;3145610;28;20393;-76
2023/09/18 01:33:21;;;;;;;;;;;;;;;19.98;65.46;100184.91;3143300;28;20026;-75
2023/09/18 01:34:54;;;;;;;;;;;;;;;19.97;65.57;100183.22;3133460;28;19932;-76
2023/09/18 01:36:25;;;;;;;;;;;;;;;19.95;65.49;100182.50;3134525;28;19964;-75
2023/09/18 01:37:59;;;;;;;;;;;;;;;19.93;65.85;100187.88;3145520;28;19925;-76
2023/09/18 01:39:32;;;;;;;;;;;;;;;19.91;65.72;100179.25;3146104;28;19929;-75
2023/09/18 01:41:03;;;;;;;;;;;;;;;19.92;65.76;100182.72;3141961;28;19937;-75
2023/09/18 01:42:35;;;;;;;;;;;;;;;19.91;65.81;100176.63;3133003;28;19951;-75
2023/09/18 01:44:06;;;;;;;;;;;;;;;19.90;65.77;100182.00;3133137;28;19925;-75
2023/09/18 01:45:38;;;;;;;;;;;;;;;19.89;65.86;100180.34;3133032;28;19932;-77
2023/09/18 01:47:09;;;;;;;;;;;;;;;19.89;65.83;100175.03;3142770;28;19924;-76
2023/09/18 01:48:46;;;;;;;;;;;;;;;19.89;65.73;100182.97;3137281;28;19929;-77
2023/09/18 01:50:16;;;;;;;;;;;;;;;19.89;65.68;100182.97;3128064;28;19925;-77
2023/09/18 01:51:49;;;;;;;;;;;;;;;19.88;65.82;100184.78;3136872;28;19931;-75
2023/09/18 01:53:20;;;;;;;;;;;;;;;19.88;65.97;100183.94;3131877;28;19936;-76
2023/09/18 01:54:52;;;;;;;;;;;;;;;19.87;65.87;100182.25;3133105;28;20317;-76
2023/09/18 01:56:23;;;;;;;;;;;;;;;19.88;65.91;100176.03;3132586;28;19924;-76
2023/09/18 01:57:55;;;;;;;;;;;;;;;19.87;65.79;100177.78;3136972;28;19970;-73
2023/09/18 01:59:26;;;;;;;;;;;;;;;19.87;65.65;100183.09;3142261;28;19932;-73
2023/09/18 02:01:01;;;;;;;;;;;;;;;19.89;65.81;100190.91;3135349;28;19924;-73
2023/09/18 02:02:31;;;;;;;;;;;;;;;19.88;65.74;100189.22;3143354;28;19931;-73
2023/09/18 02:04:03;;;;;;;;;;;;;;;19.88;65.86;100190.06;3132834;28;19925;-73
2023/09/18 02:05:36;;;;;;;;;;;;;;;19.91;65.49;100191.63;3133403;28;20359;-71
2023/09/18 02:07:07;;;;;;;;;;;;;;;19.91;65.57;100189.00;3145556;28;20344;-73
2023/09/18 02:08:40;;;;;;;;;;;;;;;19.92;65.25;100186.22;3133232;28;19925;-73
2023/09/18 02:10:13;;;;;;;;;;;;;;;19.95;65.54;100190.44;3133890;28;19929;-73
2023/09/18 02:11:45;;;;;;;;;;;;;;;19.97;65.40;100181.41;3131507;28;20003;-73
2023/09/18 02:13:17;;;;;;;;;;;;;;;19.99;65.08;100184.78;3142919;28;20460;-73
2023/09/18 02:14:48;;;;;;;;;;;;;;;20.01;65.11;100189.94;3135558;28;19925;-73
2023/09/18 02:16:24;;;;;;;;;;;;;;;20.03;65.08;100189.84;3132609;28;20059;-73
2023/09/18 02:17:54;;;;;;;;;;;;;;;20.02;65.13;100188.97;3141290;28;20031;-73
2023/09/18 02:19:26;;;;;;;;;;;;;;;20.02;65.06;100180.19;3141622;28;19936;-73
2023/09/18 02:20:57;;;;;;;;;;;;;;;19.99;65.00;100187.44;3129282;28;19932;-73
2023/09/18 02:22:28;;;;;;;;;;;;;;;19.96;65.09;100184.16;3135694;28;20398;-73
2023/09/18 02:24:00;;;;;;;;;;;;;;;19.97;65.30;100191.16;3140092;28;20325;-73
2023/09/18 02:25:32;;;;;;;;;;;;;;;19.95;65.17;100183.34;3132816;28;19931;-73
2023/09/18 02:27:05;;;;;;;;;;;;;;;19.95;65.33;100185.13;3136680;28;19929;-73
2023/09/18 02:28:35;;;;;;;;;;;;;;;19.96;65.43;100187.66;3144745;28;19924;-73
2023/09/18 02:30:07;;;;;;;;;;;;;;;19.98;64.93;100191.03;3142551;28;20429;-73
2023/09/18 02:31:38;;;;;;;;;;;;;;;20.00;64.95;100185.63;3132762;28;19929;-74
2023/09/18 02:33:10;;;;;;;;;;;;;;;20.00;64.87;100188.28;3133425;28;20170;-73
2023/09/18 02:34:40;;;;;;;;;;;;;;;20.00;64.93;100189.09;3137904;28;19951;-73
2023/09/18 02:36:30;;;;;;;;;;;;;;;20.03;64.88;100190.66;3132590;28;19924;-73
2023/09/18 02:38:02;;;;;;;;;;;;;;;20.05;64.71;100182.59;3132591;28;20007;-72
2023/09/18 02:39:35;;;;;;;;;;;;;;;20.08;64.75;100190.28;3132688;28;19932;-72
2023/09/18 02:41:07;;;;;;;;;;;;;;;20.10;64.60;100188.38;3145227;28;19924;-76
2023/09/18 02:42:37;;;;;;;;;;;;;;;20.12;64.54;100192.59;3132835;28;20377;-77
2023/09/18 02:44:09;;;;;;;;;;;;;;;20.11;64.64;100188.25;3135290;28;19926;-77
2023/09/18 02:45:39;;;;;;;;;;;;;;;20.11;64.52;100188.25;3135931;28;20002;-77
2023/09/18 02:47:11;;;;;;;;;;;;;;;20.13;64.33;100190.78;3142417;28;20427;-76
2023/09/18 02:48:41;;;;;;;;;;;;;;;20.14;64.31;100193.31;3136208;28;19925;-76
2023/09/18 02:50:13;;;;;;;;;;;;;;;20.15;64.27;100197.63;3128277;28;19958;-76
2023/09/18 02:51:43;;;;;;;;;;;;;;;20.14;64.12;100193.31;3130848;28;19929;-75
2023/09/18 02:53:18;;;;;;;;;;;;;;;20.10;64.27;100188.38;3137535;28;20261;-75
2023/09/18 02:54:51;;;;;;;;;;;;;;;20.12;64.35;100191.75;3134700;28;20314;-77
2023/09/18 02:56:22;;;;;;;;;;;;;;;20.12;64.38;100191.75;3132155;28;19948;-76
2023/09/18 02:57:53;;;;;;;;;;;;;;;20.12;64.34;100189.94;3136326;28;20281;-75
2023/09/18 02:59:24;;;;;;;;;;;;;;;20.14;63.98;100195.97;3144642;28;19924;-75
2023/09/18 03:00:56;;;;;;;;;;;;;;;20.16;64.00;100198.47;3134590;28;19935;-75
2023/09/18 03:02:27;;;;;;;;;;;;;;;20.16;63.92;100201.94;3143508;28;20401;-75
2023/09/18 03:03:59;;;;;;;;;;;;;;;20.15;64.15;100200.28;3133076;28;20333;-75
2023/09/18 03:05:31;;;;;;;;;;;;;;;20.14;64.15;100206.53;3145313;28;19939;-76
2023/09/18 03:07:02;;;;;;;;;;;;;;;20.12;64.07;100197.03;3132697;28;19971;-76
2023/09/18 03:08:33;;;;;;;;;;;;;;;20.08;64.16;100201.72;3132490;28;19925;-77
2023/09/18 03:10:07;;;;;;;;;;;;;;;20.07;64.29;100204.50;3132599;28;19929;-77
2023/09/18 03:11:37;;;;;;;;;;;;;;;20.06;64.11;100202.81;3142568;28;19924;-75
2023/09/18 03:13:09;;;;;;;;;;;;;;;20.04;64.36;100197.63;3144651;28;19925;-76
2023/09/18 03:14:40;;;;;;;;;;;;;;;19.99;64.37;100205.94;3143698;28;19928;-76
2023/09/18 03:16:12;;;;;;;;;;;;;;;19.96;64.60;100203.50;3140453;28;19928;-77
2023/09/18 03:17:42;;;;;;;;;;;;;;;19.94;64.49;100205.44;3137541;28;20429;-77
2023/09/18 03:19:14;;;;;;;;;;;;;;;19.91;64.66;100204.84;3139131;28;19924;-76
2023/09/18 03:20:45;;;;;;;;;;;;;;;19.88;64.67;100211.22;3130272;28;19940;-77
2023/09/18 03:22:16;;;;;;;;;;;;;;;19.88;64.69;100205.94;3137738;28;19925;-77
2023/09/18 03:23:47;;;;;;;;;;;;;;;19.86;64.82;100201.72;3132244;28;20039;-76
2023/09/18 03:25:20;;;;;;;;;;;;;;;19.84;64.71;100203.63;3132391;28;19986;-77
2023/09/18 03:26:51;;;;;;;;;;;;;;;19.82;64.87;100210.81;3135704;28;19931;-73
2023/09/18 03:28:23;;;;;;;;;;;;;;;19.80;64.81;100207.47;3144308;28;19997;-72
2023/09/18 03:29:53;;;;;;;;;;;;;;;19.77;65.08;100203.25;3137146;28;19925;-72
2023/09/18 03:31:25;;;;;;;;;;;;;;;19.75;65.16;100205.19;3137872;28;20399;-73
2023/09/18 03:32:56;;;;;;;;;;;;;;;19.76;64.97;100198.94;3132555;28;20422;-73
2023/09/18 03:34:27;;;;;;;;;;;;;;;19.75;65.15;100198.09;3132009;28;20051;-74
2023/09/18 03:35:58;;;;;;;;;;;;;;;19.76;64.91;100199.78;3138809;28;19931;-74
2023/09/18 03:37:30;;;;;;;;;;;;;;;19.75;65.13;100203.38;3132118;28;19929;-73
2023/09/18 03:39:02;;;;;;;;;;;;;;;19.76;65.08;100201.59;3132489;28;19929;-74
2023/09/18 03:40:33;;;;;;;;;;;;;;;19.75;64.95;100200.72;3138663;28;20325;-76
2023/09/18 03:42:05;;;;;;;;;;;;;;;19.76;65.08;100205.06;3135932;28;19932;-76
2023/09/18 03:43:36;;;;;;;;;;;;;;;19.77;64.91;100205.91;3140303;28;20405;-77
2023/09/18 03:45:08;;;;;;;;;;;;;;;19.76;64.95;100204.25;3137944;28;19924;-69
2023/09/18 03:46:38;;;;;;;;;;;;;;;19.73;65.07;100200.03;3132259;28;19972;-68
2023/09/18 03:48:10;;;;;;;;;;;;;;;19.71;65.09;100199.28;3135484;28;20398;-70
2023/09/18 03:49:41;;;;;;;;;;;;;;;19.70;65.36;100200.25;3130881;28;19960;-70
2023/09/18 03:51:15;;;;;;;;;;;;;;;19.71;65.02;100198.47;3127895;28;19925;-68
2023/09/18 03:52:46;;;;;;;;;;;;;;;19.72;65.18;100198.31;3130070;28;19987;-67
2023/09/18 03:54:17;;;;;;;;;;;;;;;19.72;65.34;100198.31;3125894;28;19986;-68
2023/09/18 03:55:49;;;;;;;;;;;;;;;19.77;65.11;100197.97;3135563;28;19932;-69
2023/09/18 03:57:21;;;;;;;;;;;;;;;19.82;64.98;100208.19;3135801;28;19982;-70
2023/09/18 03:58:51;;;;;;;;;;;;;;;19.84;64.85;100204.47;3144138;28;19924;-66
2023/09/18 04:00:23;;;;;;;;;;;;;;;19.85;64.92;100200.88;3133189;28;19951;-70
2023/09/18 04:01:54;;;;;;;;;;;;;;;19.90;64.71;100203.16;3141393;28;20046;-66
2023/09/18 04:03:25;;;;;;;;;;;;;;;19.92;64.55;100206.53;3132216;28;19933;-65
2023/09/18 04:04:56;;;;;;;;;;;;;;;19.95;64.46;100212.41;3141659;28;19998;-69
2023/09/18 04:06:38;;;;;;;;;;;;;;;19.98;64.36;100211.34;3146809;28;20007;-68
2023/09/18 04:08:09;;;;;;;;;;;;;;;19.99;64.04;100215.66;3138115;28;19925;-72
2023/09/18 04:09:40;;;;;;;;;;;;;;;20.04;64.21;100215.31;3134784;28;19928;-72
2023/09/18 04:11:12;;;;;;;;;;;;;;;20.08;63.96;100214.94;3139076;28;19929;-73
2023/09/18 04:12:45;;;;;;;;;;;;;;;20.13;64.08;100217.22;3141378;28;19932;-74
2023/09/18 04:14:16;;;;;;;;;;;;;;;20.16;64.01;100214.34;3146652;28;19931;-71
2023/09/18 04:15:48;;;;;;;;;;;;;;;20.18;63.92;100220.34;3138463;28;20416;-68
2023/09/18 04:17:18;;;;;;;;;;;;;;;20.20;63.80;100221.06;3134171;28;20410;-69
2023/09/18 04:18:50;;;;;;;;;;;;;;;20.22;63.70;100213.84;3136336;28;19932;-73
2023/09/18 04:20:20;;;;;;;;;;;;;;;20.26;63.69;100219.72;3132241;28;19932;-75
2023/09/18 04:21:52;;;;;;;;;;;;;;;20.28;63.46;100209.88;3128785;28;20433;-77
2023/09/18 04:23:23;;;;;;;;;;;;;;;20.31;63.40;100217.56;3134147;28;20386;-77
2023/09/18 04:24:55;;;;;;;;;;;;;;;20.33;63.41;100216.50;3134756;28;19932;-76
2023/09/18 04:26:29;;;;;;;;;;;;;;;20.34;63.19;100217.34;3135960;28;19971;-77
2023/09/18 04:28:00;;;;;;;;;;;;;;;20.35;63.40;100211.06;3144618;28;19979;-77
2023/09/18 04:29:31;;;;;;;;;;;;;;;20.35;63.23;100219.00;3134206;28;19986;-77
2023/09/18 04:31:02;;;;;;;;;;;;;;;20.33;63.36;100211.19;3134061;28;20070;-77
2023/09/18 04:32:33;;;;;;;;;;;;;;;20.32;63.31;100214.81;3134047;28;20318;-77
2023/09/18 04:34:04;;;;;;;;;;;;;;;20.31;63.24;100210.47;3143442;28;20293;-77
2023/09/18 04:35:36;;;;;;;;;;;;;;;20.30;63.25;100210.63;3134046;28;19933;-76
2023/09/18 04:37:07;;;;;;;;;;;;;;;20.29;63.45;100209.78;3133928;28;20420;-77
2023/09/18 04:38:38;;;;;;;;;;;;;;;20.31;63.22;100214.94;3134057;28;19932;-77
2023/09/18 04:40:09;;;;;;;;;;;;;;;20.33;63.22;100210.38;3142054;28;19936;-75
2023/09/18 04:41:42;;;;;;;;;;;;;;;20.34;63.08;100206.75;3138843;28;20447;-78
2023/09/18 04:43:13;;;;;;;;;;;;;;;20.34;63.10;100209.41;3140151;28;19947;-74
2023/09/18 04:44:44;;;;;;;;;;;;;;;20.32;63.21;100208.66;3134247;28;19931;-71
2023/09/18 04:46:15;;;;;;;;;;;;;;;20.31;63.10;100209.63;3133607;28;19932;-74
2023/09/18 04:47:47;;;;;;;;;;;;;;;20.30;63.26;100215.91;3138705;28;20015;-68
2023/09/18 04:49:18;;;;;;;;;;;;;;;20.28;63.36;100210.72;3146514;28;20009;-71
2023/09/18 04:50:49;;;;;;;;;;;;;;;20.28;63.45;100215.19;3132989;28;19932;-73
2023/09/18 04:52:20;;;;;;;;;;;;;;;20.30;63.24;100215.91;3126741;28;19929;-74
2023/09/18 04:53:52;;;;;;;;;;;;;;;20.33;63.31;100211.19;3132807;28;19931;-73
2023/09/18 04:55:23;;;;;;;;;;;;;;;20.38;62.98;100213.47;3133730;28;20108;-69
2023/09/18 04:56:56;;;;;;;;;;;;;;;20.42;63.08;100212.28;3133468;28;19972;-71
2023/09/18 04:58:26;;;;;;;;;;;;;;;20.46;62.78;100216.34;3134447;28;19936;-69
2023/09/18 04:59:58;;;;;;;;;;;;;;;20.48;62.56;100211.78;3129042;28;19925;-70
2023/09/18 05:01:29;;;;;;;;;;;;;;;20.50;62.74;100215.16;3131535;28;19935;-71
2023/09/18 05:03:02;;;;;;;;;;;;;;;20.53;62.76;100214.06;3133578;28;19928;-71
2023/09/18 05:04:34;;;;;;;;;;;;;;;20.53;62.77;100209.66;3133913;28;19925;-69
2023/09/18 05:06:09;;;;;;;;;;;;;;;20.54;62.63;100219.25;3134886;28;19936;-68
2023/09/18 05:07:40;;;;;;;;;;;;;;;20.51;62.70;100216.00;3140737;28;19976;-68
2023/09/18 05:09:12;;;;;;;;;;;;;;;20.47;62.76;100218.06;3132792;28;20027;-68
2023/09/18 05:10:43;;;;;;;;;;;;;;;20.49;62.71;100221.41;3134001;28;19935;-68
2023/09/18 05:12:16;;;;;;;;;;;;;;;20.48;62.72;100217.06;3132993;28;19925;-68
2023/09/18 05:13:46;;;;;;;;;;;;;;;20.46;62.71;100219.00;3144618;28;20312;-68
2023/09/18 05:15:18;;;;;;;;;;;;;;;20.44;62.68;100220.94;3141651;28;20008;-71
2023/09/18 05:16:49;;;;;;;;;;;;;;;20.43;62.78;100222.72;3143726;28;20434;-72
2023/09/18 05:18:21;;;;;;;;;;;;;;;20.45;62.71;100217.31;3140884;28;19929;-69
2023/09/18 05:19:52;;;;;;;;;;;;;;;20.48;62.48;100222.38;3128621;28;19925;-71
2023/09/18 05:21:24;;;;;;;;;;;;;;;20.50;62.52;100216.94;3126238;28;19925;-70
2023/09/18 05:22:56;;;;;;;;;;;;;;;20.48;62.51;100222.38;3132699;28;19940;-69
2023/09/18 05:24:27;;;;;;;;;;;;;;;20.48;62.59;100224.19;3129438;28;19961;-69
2023/09/18 05:25:59;;;;;;;;;;;;;;;20.51;62.50;100224.78;3132323;28;19944;-70
2023/09/18 05:27:33;;;;;;;;;;;;;;;20.53;62.37;100214.06;3133464;28;20430;-68
2023/09/18 05:29:05;;;;;;;;;;;;;;;20.57;62.22;100215.53;3133479;28;20595;-71
2023/09/18 05:30:38;;;;;;;;;;;;;;;20.61;62.23;100216.97;3135082;28;20398;-72
2023/09/18 05:32:10;;;;;;;;;;;;;;;20.65;62.12;100213.94;3145597;28;19931;-68
2023/09/18 05:33:41;;;;;;;;;;;;;;;20.71;61.80;100211.78;3145187;28;19928;-70
2023/09/18 05:35:13;;;;;;;;;;;;;;;20.77;62.00;100217.41;3132807;28;19925;-69
2023/09/18 05:36:45;;;;;;;;;;;;;;;20.83;61.81;100210.78;3145088;28;19924;-71
2023/09/18 05:38:17;;;;;;;;;;;;;;;20.88;61.51;100205.94;3133990;28;19933;-70
2023/09/18 05:39:49;;;;;;;;;;;;;;;20.94;61.33;100207.25;3133466;28;19925;-68
2023/09/18 05:41:21;;;;;;;;;;;;;;;20.98;61.09;100206.88;3133635;28;19929;-69
2023/09/18 05:42:53;;;;;;;;;;;;;;;21.03;61.14;100204.69;3145774;28;19924;-69
2023/09/18 05:44:25;;;;;;;;;;;;;;;21.11;60.74;100207.53;3134885;28;19932;-69
2023/09/18 05:45:55;;;;;;;;;;;;;;;21.19;60.85;100209.56;3133419;28;20376;-70
2023/09/18 05:47:29;;;;;;;;;;;;;;;21.28;60.43;100207.94;3144194;28;19925;-70
2023/09/18 05:49:00;;;;;;;;;;;;;;;21.34;60.06;100195.03;3145782;28;20511;-70
2023/09/18 05:50:32;;;;;;;;;;;;;;;21.46;59.99;100203.78;3135848;28;19925;-73
2023/09/18 05:52:03;;;;;;;;;;;;;;;21.56;59.70;100212.66;3131228;28;20598;-72
2023/09/18 05:53:35;;;;;;;;;;;;;;;21.71;59.49;100214.94;3132251;28;19929;-73
2023/09/18 05:55:06;;;;;;;;;;;;;;;21.81;58.85;100215.84;3129855;28;20436;-74
2023/09/18 05:56:38;;;;;;;;;;;;;;;21.86;58.71;100218.09;3138215;28;20436;-74
2023/09/18 05:58:10;;;;;;;;;;;;;;;21.94;58.34;100210.31;3139373;28;19954;-71
2023/09/18 05:59:43;;;;;;;;;;;;;;;22.01;58.19;100212.34;3140348;28;19928;-71
2023/09/18 06:01:15;;;;;;;;;;;;;;;22.13;57.88;100212.25;3135869;28;19925;-74
2023/09/18 06:02:46;;;;;;;;;;;;;;;22.18;57.90;100215.34;3141789;28;20007;-74
2023/09/18 06:04:18;;;;;;;;;;;;;;;22.20;57.71;100219.56;3136784;28;19925;-73
2023/09/18 06:05:48;;;;;;;;;;;;;;;22.22;57.74;100216.78;3132838;28;19928;-74
2023/09/18 06:07:20;;;;;;;;;;;;;;;22.20;57.60;100214.25;3133203;28;19925;-71
2023/09/18 06:08:53;;;;;;;;;;;;;;;22.11;57.17;100217.66;3134097;28;19924;-71
2023/09/18 06:10:25;;;;;;;;;;;;;;;21.99;57.51;100221.38;3141619;28;19932;-73
2023/09/18 06:11:56;;;;;;;;;;;;;;;21.91;57.41;100218.56;3144268;28;19932;-74
2023/09/18 06:13:29;;;;;;;;;;;;;;;21.90;57.60;100225.66;3143837;28;20015;-69
2023/09/18 06:15:06;;;;;;;;;;;;;;;21.89;57.72;100218.69;3133228;28;19929;-79
2023/09/18 06:16:39;;;;;;;;;;;;;;;21.88;57.92;100234.72;3124059;28;19964;-76
2023/09/18 06:18:10;;;;;;;;;;;;;;;21.80;57.85;100230.09;3132824;28;19932;-75
2023/09/18 06:19:41;;;;;;;;;;;;;;;21.78;57.84;100235.50;3133600;28;20164;-76
2023/09/18 06:21:12;;;;;;;;;;;;;;;21.80;57.96;100238.06;3132880;28;19932;-76
2023/09/18 06:22:44;;;;;;;;;;;;;;;21.81;57.91;100239.72;3132643;28;19933;-76
2023/09/18 06:24:14;;;;;;;;;;;;;;;21.84;57.60;100235.97;3141616;28;20001;-77
2023/09/18 06:25:46;;;;;;;;;;;;;;;21.87;57.94;100236.53;3127472;28;20004;-74
2023/09/18 06:27:18;;;;;;;;;;;;;;;21.84;57.42;100231.50;3128026;28;20567;-72
2023/09/18 06:28:52;;;;;;;;;;;;;;;21.80;57.84;100235.41;3133104;28;19990;-74
2023/09/18 06:30:23;;;;;;;;;;;;;;;21.85;57.91;100233.16;3132421;28;20015;-73
2023/09/18 06:31:54;;;;;;;;;;;;;;;21.87;57.46;100244.50;3132569;28;19931;-75
2023/09/18 06:33:26;;;;;;;;;;;;;;;21.84;57.33;100238.63;3138090;28;20399;-72
2023/09/18 06:34:57;;;;;;;;;;;;;;;21.81;57.54;100237.91;3136080;28;20376;-69
2023/09/18 06:36:29;;;;;;;;;;;;;;;21.86;57.57;100240.19;3132428;28;20023;-69
2023/09/18 06:38:01;;;;;;;;;;;;;;;21.93;57.34;100240.47;3123833;28;20294;-69
2023/09/18 06:39:31;;;;;;;;;;;;;;;21.98;57.56;100241.78;3135214;28;20374;-68
2023/09/18 06:41:04;;;;;;;;;;;;;;;22.05;57.16;100236.78;3143287;28;19925;-72
2023/09/18 06:42:34;;;;;;;;;;;;;;;22.04;57.13;100243.88;3134122;28;19940;-75
2023/09/18 06:44:07;;;;;;;;;;;;;;;22.08;57.06;100238.31;3136671;28;19937;-73
2023/09/18 06:45:39;;;;;;;;;;;;;;;22.11;56.94;100243.34;3132209;28;19929;-71
2023/09/18 06:47:11;;;;;;;;;;;;;;;22.12;57.03;100240.56;3132502;28;20015;-69
2023/09/18 06:48:45;;;;;;;;;;;;;;;22.11;56.54;100238.88;3133054;28;19936;-71
2023/09/18 06:50:17;;;;;;;;;;;;;;;22.09;56.61;100240.00;3132437;28;19928;-71
2023/09/18 06:51:48;;;;;;;;;;;;;;;22.09;56.97;100242.63;3132530;28;19929;-68
2023/09/18 06:53:20;;;;;;;;;;;;;;;22.13;56.92;100236.94;3124291;28;19976;-69
2023/09/18 06:54:50;;;;;;;;;;;;;;;22.23;56.92;100234.38;3125556;28;19928;-69
2023/09/18 06:56:23;;;;;;;;;;;;;;;22.36;56.42;100237.66;3128784;28;20070;-69
2023/09/18 06:57:53;;;;;;;;;;;;;;;22.44;56.16;100235.13;3136328;28;19943;-69
2023/09/18 06:59:27;;;;;;;;;;;;;;;22.51;56.36;100242.56;3139391;28;19933;-71
2023/09/18 07:00:57;;;;;;;;;;;;;;;22.75;55.98;100237.75;3134636;28;19930;-74
2023/09/18 07:02:32;;;;;;;;;;;;;;;22.91;55.38;100226.56;3144885;28;20058;-69
2023/09/18 07:04:20;;;;;;;;;;;;;;;22.97;55.36;100226.03;3144779;28;19928;-72
2023/09/18 07:05:58;;;;;;;;;;;;;;;23.17;55.19;100229.56;3127298;28;20296;-70
2023/09/18 07:08:04;;;;;;;;;;;;;;;23.35;54.53;100230.53;3132404;28;19933;-71
2023/09/18 07:09:50;;;;;;;;;;;;;;;23.79;54.23;100233.56;3138011;28;20019;-68
2023/09/18 07:11:34;;;;;;;;;;;;;;;24.22;53.25;100234.81;3128543;28;20405;-69
2023/09/18 07:13:08;;;;;;;;;;;;;;;24.85;53.31;100231.41;3140397;28;19974;-66
2023/09/18 07:14:48;;;;;;;;;;;;;;;25.46;52.14;100224.47;3144515;28;19928;-68
2023/09/18 07:16:21;;;;;;;;;;;;;;;26.01;51.05;100224.22;3141262;28;19925;-69
2023/09/18 07:18:01;;;;;;;;;;;;;;;26.44;49.51;100227.72;3144960;28;19930;-69
2023/09/18 07:19:35;;;;;;;;;;;;;;;26.60;46.73;100226.16;3137466;28;19928;-69
2023/09/18 07:21:09;;;;;;;;;;;;;;;26.66;46.97;100226.34;3137266;28;19979;-70
2023/09/18 07:24:32;;;;;;;;;;;;;;;27.69;46.47;100225.91;3132937;28;19925;-71
2023/09/18 07:26:14;;;;;;;;;;;;;;;28.17;46.10;100226.81;3132632;28;19925;-73
2023/09/18 07:27:46;;;;;;;;;;;;;;;28.74;45.33;100226.56;3130449;28;20804;-73
2023/09/18 07:29:34;;;;;;;;;;;;;;;29.16;43.95;100235.19;3129791;28;20389;-72
2023/09/18 07:31:12;;;;;;;;;;;;;;;29.42;43.30;100234.81;3130247;28;19972;-74
2023/09/18 07:33:03;;;;;;;;;;;;;;;29.39;41.51;100230.63;3131727;28;20013;-73
2023/09/18 07:34:42;;;;;;;;;;;;;;;29.09;42.18;100232.41;3138245;28;19978;-72
2023/09/18 07:36:27;;;;;;;;;;;;;;;29.05;42.62;100236.47;3120061;28;20396;-71
2023/09/18 07:38:05;;;;;;;;;;;;;;;29.31;42.59;100228.00;3120127;28;19925;-72
2023/09/18 07:39:43;;;;;;;;;;;;;;;29.40;41.49;100237.69;3132310;28;19924;-69
2023/09/18 07:41:22;;;;;;;;;;;;;;;29.25;41.74;100236.78;3146542;28;20343;-70
2023/09/18 07:43:04;;;;;;;;;;;;;;;29.03;41.86;100236.63;3135372;28;19925;-72
2023/09/18 07:44:40;;;;;;;;;;;;;;;28.80;42.35;100235.75;3135874;28;19928;-71
2023/09/18 07:46:46;;;;;;;;;;;;;;;28.56;42.61;100240.22;3135305;28;19925;-72
2023/09/18 07:48:19;;;;;;;;;;;;;;;28.66;42.15;100234.66;3133140;28;20002;-74
2023/09/18 07:49:51;;;;;;;;;;;;;;;28.53;41.98;100237.91;3139617;28;20023;-73
2023/09/18 07:51:22;;;;;;;;;;;;;;;28.38;42.33;100241.47;3137926;28;19974;-74
2023/09/18 07:52:53;;;;;;;;;;;;;;;28.35;42.41;100232.75;3139763;28;19983;-73
2023/09/18 07:54:24;;;;;;;;;;;;;;;28.34;42.49;100228.44;3141554;28;19928;-71
2023/09/18 07:56:01;;;;;;;;;;;;;;;28.48;41.33;100239.44;3129674;28;20059;-71
2023/09/18 07:57:34;;;;;;;;;;;;;;;28.52;40.78;100235.41;3134877;28;19932;-71